Withamsville, Ohio
Current Conditions -  °F | °C
As of 3:53 AM on Monday 24 Nov 2014 (Local Time) from KLUK Reporting Station
Overcast Overcast  
Wind Chill: 59°   Ceiling: 2200
Heat Index: 59°   Visibility: 10mi
Dew Point: 56°   Wind: 17mph
Humidity: 90%   Direction: 210°SSW
Pressure: 29.35"   Gusts: 23mph
Location:  39.0659°N, 84.278°W
Report Text: KLUK 240853Z AUTO 21015G20KT 10SM BKN022 BKN031 OVC045 15/13 A2935 RMK AO2 RAB17E53 SLP938 P0001 60001 T01500133 51018 $
Loading
Personal Weather Stations






























Interactive Weather Map New forecast layout! Learn more

10-Day Weather Forecast

Advertisements
Track Severe Weather on mobile